Dryden Regional Airport
CYHD : rendu visible

Aérodrome :











RETROUVEZ-NOUS SUR...

 
LOGIN :

S'inscrire | Disclaimer

   EN    FR    IT 

 









Légende :    VFR   VFR Marginal   IFR   IFR Intensif   IFR Très Intensif
Visi : 
Plafond : 
>= 8 km
>= 3000ft
5 à 8 km
1000 à 3000 ft
1500m à 5 km
500 à 1000 ft
800 à 1500m
200 à 500 ft
< 800m
< 200 ft
Symboles :   Orages  Brouillard  Fortes neiges  Fortes précipitations  Vent > 20 kt






- Altitude de l'aérodrome : 1354 ft
- Code IATA : YHD


CYHD - Dryden Regional

DERNIER METAR :
  • 121800Z AUTO 19013G19KT 9SM CLR M12/M19 A3017 RMK SLP263

METARs EXPIRÉS :
  • 121700Z AUTO 20010G16KT 9SM CLR M13/M19 A3022 RMK SLP279
  • 121600Z AUTO 19014G19KT 9SM BKN140 M15/M20 A3024 RMK SLP286

TAF TAF CYHD
Valide du 12 à 14h jusqu'au 13 à 02h UTC


121338Z 1214/1302 21006KT P6SM SCT020
TEMPO 1214/1216 5SM -SN BKN020
BECMG 1214/1216 19012G22KT
FM121600 19012G22KT P6SM SKC RMK FCST BASED ON AUTO OBS. NXT FCST BY 122000Z



MET'MAP, la Météo Aéronautique d'un coup d'oeil ! - Copyright ORBIFLY Décembre 2007 - Disclaimer

ORBIFLY MET'MAP TEAM :

Programmation & Développement : Alexandra Zaïnal
Conception & Développement : Baudouin d'Aumeries
Co-Programmation & Développement : Marc-Olivier Méhu
Soutien technique & logistique : Manuel Goepfert

Contact : metmap@orbifly.com




SOURCES & CREDITS :

   NOAA       Earth
Advisory